Aérodrome :
LOGIN :

S'inscrire | Disclaimer

   EN    FR    IT 

 










Légende :    VFR   VFR Marginal   IFR   IFR Intensif   IFR Très Intensif
Visi : 
Plafond : 
>= 8 km
>= 3000ft
5 à 8 km
1000 à 3000 ft
1500m à 5 km
500 à 1000 ft
800 à 1500m
200 à 500 ft
< 800m
< 200 ft
Symboles :   Orages  Brouillard  Fortes neiges  Fortes précipitations  Vent > 20 kt
SIGMETs :   Divers  Orages  Givrage  Turbulence  Onde Orograph.  Cendres Volcan.






- Altitude de l'aérodrome : 614 ft
- Code IATA : CRL


EBCI - Charleroi

DERNIER METAR :
  • 091820Z 07003KT 040V150 4500 BR BKN004 OVC005 M02/M03 Q1006 TEMPO 6000 NSW SCT004 BKN006

METARs EXPIRÉS :
  • 091750Z 10004KT 040V160 4000 BR BKN004 BKN005 M02/M03 Q1006 TEMPO 5000 BR BKN005
  • 091720Z 06004KT 020V110 3000 BR BKN003 BKN004 M02/M03 Q1006 NOSIG
  • 091650Z 08003KT 030V120 3600 BR SCT003 BKN004 M02/M03 Q1006 NOSIG

TAF TAF EBCI
Valide du 09 à 12h jusqu'au 10 à 18h UTC


091710Z 0912/1018 VRB02KT 3000 BR BKN003
TEMPO 0918/0924 BKN006
PROB30
TEMPO 0918/0922 6000 NSW SCT010
PROB30
TEMPO 1002/1010 0200 FZFG BKN001
BECMG 1011/1013 7000 NSW SCT012



MET'MAP, la Météo Aéronautique d'un coup d'oeil ! - Copyright ORBIFLY Décembre 2007 - Disclaimer

ORBIFLY MET'MAP TEAM :

Programmation & Développement : Alexandra Zaïnal
Sur une idée originale de : Baudouin d'Aumeries
Soutien technique & logistique : Manuel Goepfert
Assistance : Marc-Olivier Méhu




SOURCES & CREDITS :

   NOAA